createdAt,value
2023-02-24T00:03:23.205Z,10.36
2023-02-24T00:08:26.353Z,10.32
2023-02-24T00:13:32.220Z,10.27
2023-02-24T00:18:36.834Z,10.24
2023-02-24T00:23:41.076Z,10.15
2023-02-24T00:28:44.897Z,10.12
2023-02-24T00:33:49.589Z,10.06
2023-02-24T00:38:56.056Z,10.05
2023-02-24T00:44:06.196Z,9.98
2023-02-24T00:49:17.330Z,9.91
2023-02-24T00:54:20.560Z,9.88
2023-02-24T00:59:25.281Z,9.84
2023-02-24T01:04:29.840Z,9.79
2023-02-24T01:09:35.014Z,9.71
2023-02-24T01:14:39.770Z,9.66
2023-02-24T01:19:44.901Z,9.66
2023-02-24T01:24:48.907Z,9.65
2023-02-24T01:29:52.123Z,9.64
2023-02-24T01:34:56.827Z,9.61
2023-02-24T01:40:10.236Z,9.60
2023-02-24T01:45:18.060Z,9.58
2023-02-24T01:50:26.167Z,9.56
2023-02-24T01:55:42.937Z,9.57
2023-02-24T02:00:48.583Z,9.56
2023-02-24T02:05:56.203Z,9.53
2023-02-24T02:11:04.914Z,9.56
2023-02-24T02:16:30.536Z,9.42
2023-02-24T02:22:04.431Z,9.17
2023-02-24T02:27:37.167Z,9.05
2023-02-24T02:33:24.677Z,8.79
2023-02-24T02:38:35.439Z,8.61
2023-02-24T02:43:44.120Z,8.51
2023-02-24T02:48:52.487Z,8.36
2023-02-24T02:54:01.979Z,8.24
2023-02-24T02:59:08.430Z,8.10
2023-02-24T03:04:17.128Z,8.01
2023-02-24T03:09:25.421Z,7.93
2023-02-24T03:14:33.730Z,7.91
2023-02-24T03:19:40.323Z,7.85
2023-02-24T03:24:46.385Z,7.78
2023-02-24T03:29:55.257Z,7.76
2023-02-24T03:35:03.259Z,7.69
2023-02-24T03:40:14.661Z,7.69
2023-02-24T03:45:18.686Z,7.66
2023-02-24T03:50:23.154Z,7.67
2023-02-24T03:55:38.956Z,7.64
2023-02-24T04:00:52.373Z,7.58
2023-02-24T04:06:06.002Z,7.55
2023-02-24T04:11:20.877Z,7.49
2023-02-24T04:16:36.589Z,7.46
2023-02-24T04:21:41.242Z,7.40
2023-02-24T04:26:48.191Z,7.36
2023-02-24T04:31:55.681Z,7.37
2023-02-24T04:36:59.589Z,7.33
2023-02-24T04:42:04.085Z,7.30
2023-02-24T04:47:07.486Z,7.28
2023-02-24T04:52:10.643Z,7.29
2023-02-24T04:57:15.333Z,7.25
2023-02-24T05:02:20.656Z,7.24
2023-02-24T05:07:23.818Z,7.17
2023-02-24T05:12:29.534Z,7.05
2023-02-24T05:17:32.779Z,7.04
2023-02-24T05:22:35.956Z,7.05
2023-02-24T05:27:40.418Z,7.03
2023-02-24T05:32:43.822Z,6.94
2023-02-24T05:37:48.995Z,6.96
2023-02-24T05:42:54.548Z,6.94
2023-02-24T05:48:01.223Z,6.91
2023-02-24T05:53:05.046Z,6.91
2023-02-24T05:58:25.989Z,6.88
2023-02-24T06:03:35.802Z,6.86
2023-02-24T06:08:49.388Z,6.86
2023-02-24T06:13:58.030Z,6.83
2023-02-24T06:19:01.606Z,6.82
2023-02-24T06:24:06.687Z,6.77
2023-02-24T06:29:20.986Z,6.80
2023-02-24T06:34:31.562Z,6.79
2023-02-24T06:39:36.713Z,6.83
2023-02-24T06:44:44.695Z,6.86
2023-02-24T06:49:48.092Z,6.85
2023-02-24T06:54:55.841Z,6.91
2023-02-24T07:00:20.226Z,6.98
2023-02-24T07:05:24.244Z,7.05
2023-02-24T07:10:30.078Z,7.06
2023-02-24T07:15:37.378Z,7.05
2023-02-24T07:20:46.639Z,7.03
2023-02-24T07:25:55.653Z,7.09
2023-02-24T07:31:00.563Z,7.15
2023-02-24T07:36:08.652Z,7.18
2023-02-24T07:41:19.286Z,7.16
2023-02-24T07:46:30.357Z,7.24
2023-02-24T07:51:33.911Z,7.24
2023-02-24T07:56:48.950Z,7.31
2023-02-24T08:01:56.976Z,7.35
2023-02-24T08:07:03.333Z,7.43
2023-02-24T08:12:08.224Z,7.46
2023-02-24T08:17:20.087Z,7.68
2023-02-24T08:22:25.409Z,8.20
2023-02-24T08:27:30.793Z,8.56
2023-02-24T08:32:43.901Z,9.14
2023-02-24T08:37:50.054Z,9.27
2023-02-24T08:42:53.290Z,9.47
2023-02-24T08:48:00.682Z,9.54
2023-02-24T08:53:04.074Z,9.60
2023-02-24T08:58:11.322Z,9.78
2023-02-24T09:03:28.118Z,9.93
2023-02-24T09:08:38.715Z,9.96
2023-02-24T09:13:51.721Z,9.99
2023-02-24T09:19:10.152Z,9.83
2023-02-24T09:24:15.992Z,9.79
2023-02-24T09:34:48.999Z,9.73
2023-02-24T09:40:15.360Z,9.55
2023-02-24T09:45:33.366Z,9.55
2023-02-24T09:51:03.792Z,9.63
2023-02-24T09:56:16.201Z,9.69
2023-02-24T10:01:33.724Z,9.69
2023-02-24T10:06:41.912Z,9.65
2023-02-24T10:11:54.785Z,9.78
2023-02-24T10:17:15.912Z,9.99
2023-02-24T10:22:30.956Z,10.27
2023-02-24T10:27:43.126Z,10.30
2023-02-24T10:32:52.213Z,10.17
2023-02-24T10:38:05.319Z,10.21
2023-02-24T10:43:11.013Z,10.36
2023-02-24T10:48:42.082Z,10.50
2023-02-24T10:53:53.475Z,10.58
2023-02-24T10:59:22.540Z,10.78
2023-02-24T11:04:54.272Z,10.90
2023-02-24T11:10:12.361Z,10.70
2023-02-24T11:15:35.856Z,10.78
2023-02-24T11:20:49.421Z,10.81
2023-02-24T11:25:59.853Z,10.66
2023-02-24T11:31:15.444Z,10.58
2023-02-24T11:36:29.791Z,10.50
2023-02-24T11:41:37.284Z,10.51
2023-02-24T11:46:44.376Z,10.45
2023-02-24T11:51:47.958Z,10.38
2023-02-24T11:56:56.257Z,10.42
2023-02-24T12:02:08.119Z,10.43
2023-02-24T12:07:20.333Z,10.40
2023-02-24T12:12:29.957Z,10.44
2023-02-24T12:17:38.606Z,10.46
2023-02-24T12:22:48.153Z,10.41
2023-02-24T12:28:05.698Z,10.46
2023-02-24T12:33:25.698Z,10.43
2023-02-24T12:38:51.666Z,10.40
2023-02-24T12:44:03.754Z,10.43
2023-02-24T12:49:23.375Z,10.34
2023-02-24T12:54:32.377Z,10.28
2023-02-24T12:59:41.141Z,10.27
2023-02-24T13:04:55.255Z,10.17
2023-02-24T13:10:13.363Z,10.07
2023-02-24T13:15:22.491Z,10.07
2023-02-24T13:20:32.095Z,9.99
2023-02-24T13:25:38.666Z,9.82
2023-02-24T13:30:45.569Z,9.63
2023-02-24T13:35:51.405Z,9.44
2023-02-24T13:40:55.043Z,9.28
2023-02-24T13:46:02.876Z,9.20
2023-02-24T13:51:21.323Z,9.07
2023-02-24T13:56:37.139Z,8.91
2023-02-24T14:01:51.122Z,8.71
2023-02-24T14:06:57.787Z,8.57
2023-02-24T14:12:04.287Z,8.46
2023-02-24T14:17:24.910Z,8.25
2023-02-24T14:22:28.310Z,8.16
2023-02-24T14:27:31.861Z,8.08
2023-02-24T14:32:36.992Z,7.99
2023-02-24T14:37:43.136Z,7.87
2023-02-24T14:42:49.034Z,7.68
2023-02-24T14:47:53.882Z,7.56
2023-02-24T14:53:03.639Z,7.42
2023-02-24T14:58:10.698Z,7.31
2023-02-24T15:03:21.166Z,7.30
2023-02-24T15:08:36.324Z,7.20
2023-02-24T15:13:42.938Z,7.19
2023-02-24T15:18:51.468Z,7.12
2023-02-24T15:24:02.337Z,6.98
2023-02-24T15:29:15.573Z,6.74
2023-02-24T15:34:22.676Z,6.72
2023-02-24T15:39:31.691Z,6.66
2023-02-24T15:44:37.491Z,6.56
2023-02-24T15:49:43.247Z,6.46
2023-02-24T15:54:49.623Z,6.37
2023-02-24T15:59:53.880Z,6.31
2023-02-24T16:04:58.528Z,6.22
2023-02-24T16:10:03.489Z,6.24
2023-02-24T16:15:13.378Z,6.15
2023-02-24T16:20:20.453Z,6.07
2023-02-24T16:25:24.574Z,6.07
2023-02-24T16:30:31.145Z,6.02
2023-02-24T16:35:36.006Z,5.94
2023-02-24T16:40:40.669Z,5.81
2023-02-24T16:45:45.313Z,5.79
2023-02-24T16:50:51.525Z,5.80
2023-02-24T16:55:54.721Z,5.80
2023-02-24T17:01:02.743Z,5.79
2023-02-24T17:06:07.800Z,5.72
2023-02-24T17:11:13.929Z,5.67
2023-02-24T17:16:18.576Z,5.68
2023-02-24T17:21:24.441Z,5.61
2023-02-24T17:26:27.620Z,5.60
2023-02-24T17:31:35.024Z,5.57
2023-02-24T17:36:39.552Z,5.49
2023-02-24T17:41:42.634Z,5.48
2023-02-24T17:46:49.738Z,5.46
2023-02-24T17:51:54.625Z,5.39
2023-02-24T17:56:57.937Z,5.38
2023-02-24T18:02:02.300Z,5.41
2023-02-24T18:07:13.891Z,5.45
2023-02-24T18:12:35.283Z,5.46
2023-02-24T18:17:42.148Z,5.51
2023-02-24T18:22:46.596Z,5.53
2023-02-24T18:27:49.744Z,5.57
2023-02-24T18:32:53.011Z,5.61
2023-02-24T18:37:57.902Z,5.61
2023-02-24T18:43:11.453Z,5.61
2023-02-24T18:48:15.153Z,5.65
2023-02-24T18:53:23.875Z,5.64
2023-02-24T18:58:35.322Z,5.68
2023-02-24T19:03:41.788Z,5.68
2023-02-24T19:08:46.718Z,5.72
2023-02-24T19:14:11.561Z,5.74
2023-02-24T19:19:17.522Z,5.75
2023-02-24T19:24:42.001Z,5.77
2023-02-24T19:29:53.507Z,5.80
2023-02-24T19:35:06.583Z,5.82
2023-02-24T19:40:17.872Z,5.80
2023-02-24T19:45:33.752Z,5.78
2023-02-24T19:50:47.782Z,5.83
2023-02-24T19:56:29.624Z,5.76
2023-02-24T20:01:51.746Z,5.75
2023-02-24T20:06:54.884Z,5.83
2023-02-24T20:12:01.715Z,5.79
2023-02-24T20:17:04.966Z,5.73
2023-02-24T20:22:08.252Z,5.75
2023-02-24T20:27:12.906Z,5.75
2023-02-24T20:32:16.298Z,5.81
2023-02-24T20:37:19.799Z,5.82
2023-02-24T20:42:24.474Z,5.87
2023-02-24T20:47:27.830Z,5.93
2023-02-24T20:52:31.222Z,5.95
2023-02-24T20:57:35.939Z,5.96
2023-02-24T21:02:41.107Z,5.98
2023-02-24T21:07:44.382Z,6.03
2023-02-24T21:12:50.475Z,6.02
2023-02-24T21:17:54.477Z,6.07
2023-02-24T21:22:58.077Z,6.11
2023-02-24T21:28:02.723Z,6.19
2023-02-24T21:33:06.102Z,6.20
2023-02-24T21:38:09.262Z,6.25
2023-02-24T21:43:13.701Z,6.26
2023-02-24T21:48:17.933Z,6.25
2023-02-24T21:53:23.687Z,6.23
2023-02-24T21:58:28.978Z,6.23
2023-02-24T22:03:32.365Z,6.22
2023-02-24T22:08:37.419Z,6.25
2023-02-24T22:13:42.770Z,6.29
2023-02-24T22:18:46.187Z,6.23
2023-02-24T22:23:51.246Z,6.28
2023-02-24T22:28:56.090Z,6.32
2023-02-24T22:33:59.832Z,6.29
2023-02-24T22:39:04.008Z,6.32
2023-02-24T22:44:08.647Z,6.31
2023-02-24T22:49:12.244Z,6.30
2023-02-24T22:54:15.902Z,6.30
2023-02-24T22:59:20.397Z,6.27
2023-02-24T23:04:24.160Z,6.23
2023-02-24T23:09:28.164Z,6.23
2023-02-24T23:14:32.909Z,6.25
2023-02-24T23:19:36.129Z,6.29
2023-02-24T23:24:39.333Z,6.25
2023-02-24T23:29:44.037Z,5.98
2023-02-24T23:34:47.242Z,5.78
2023-02-24T23:39:50.275Z,5.64
2023-02-24T23:44:54.963Z,5.60
2023-02-24T23:49:58.117Z,5.66
2023-02-24T23:55:01.489Z,5.75
